sensor_id;sensor_type;location;lat;lon;timestamp;pressure;altitude;pressure_sealevel;temperature;humidity
10658;BME280;5377;43.276;26.930;2023-02-15T00:02:00;100323.00;;;3.26;100.00
10658;BME280;5377;43.276;26.930;2023-02-15T00:04:27;100307.44;;;3.32;100.00
10658;BME280;5377;43.276;26.930;2023-02-15T00:07:13;100318.16;;;3.31;100.00
10658;BME280;5377;43.276;26.930;2023-02-15T00:09:39;100306.84;;;3.29;100.00
10658;BME280;5377;43.276;26.930;2023-02-15T00:12:06;100314.03;;;3.38;100.00
10658;BME280;5377;43.276;26.930;2023-02-15T00:14:33;100309.97;;;3.34;100.00
10658;BME280;5377;43.276;26.930;2023-02-15T00:17:01;100306.09;;;3.38;100.00
10658;BME280;5377;43.276;26.930;2023-02-15T00:19:28;100318.34;;;3.39;100.00
10658;BME280;5377;43.276;26.930;2023-02-15T00:21:55;100316.41;;;3.41;100.00
10658;BME280;5377;43.276;26.930;2023-02-15T00:24:22;100314.28;;;3.35;100.00
10658;BME280;5377;43.276;26.930;2023-02-15T00:26:49;100306.03;;;3.28;100.00
10658;BME280;5377;43.276;26.930;2023-02-15T00:29:17;100312.47;;;3.35;100.00
10658;BME280;5377;43.276;26.930;2023-02-15T00:31:45;100312.75;;;3.32;100.00
10658;BME280;5377;43.276;26.930;2023-02-15T00:34:16;100315.38;;;3.32;100.00
10658;BME280;5377;43.276;26.930;2023-02-15T00:36:43;100320.09;;;3.29;100.00
10658;BME280;5377;43.276;26.930;2023-02-15T00:39:11;100312.41;;;3.26;100.00
10658;BME280;5377;43.276;26.930;2023-02-15T00:41:39;100317.19;;;3.32;100.00
10658;BME280;5377;43.276;26.930;2023-02-15T00:44:07;100314.41;;;3.33;100.00
10658;BME280;5377;43.276;26.930;2023-02-15T00:46:34;100304.94;;;3.31;100.00
10658;BME280;5377;43.276;26.930;2023-02-15T00:49:01;100296.28;;;3.29;100.00
10658;BME280;5377;43.276;26.930;2023-02-15T00:51:30;100284.13;;;3.26;100.00
10658;BME280;5377;43.276;26.930;2023-02-15T00:53:57;100304.84;;;3.42;100.00
10658;BME280;5377;43.276;26.930;2023-02-15T00:56:24;100311.84;;;3.43;100.00
10658;BME280;5377;43.276;26.930;2023-02-15T00:58:53;100309.56;;;3.38;100.00
10658;BME280;5377;43.276;26.930;2023-02-15T01:01:20;100317.84;;;3.45;100.00
10658;BME280;5377;43.276;26.930;2023-02-15T01:03:49;100314.75;;;3.40;100.00
10658;BME280;5377;43.276;26.930;2023-02-15T01:06:16;100305.88;;;3.30;100.00
10658;BME280;5377;43.276;26.930;2023-02-15T01:08:44;100322.75;;;3.29;100.00
10658;BME280;5377;43.276;26.930;2023-02-15T01:11:13;100311.25;;;3.19;100.00
10658;BME280;5377;43.276;26.930;2023-02-15T01:13:41;100319.78;;;3.11;100.00
10658;BME280;5377;43.276;26.930;2023-02-15T01:16:08;100331.59;;;3.07;100.00
10658;BME280;5377;43.276;26.930;2023-02-15T01:18:35;100331.72;;;3.05;100.00
10658;BME280;5377;43.276;26.930;2023-02-15T01:21:09;100331.84;;;3.04;100.00
10658;BME280;5377;43.276;26.930;2023-02-15T01:23:37;100336.56;;;3.00;100.00
10658;BME280;5377;43.276;26.930;2023-02-15T01:26:05;100328.16;;;2.95;100.00
10658;BME280;5377;43.276;26.930;2023-02-15T01:28:32;100337.34;;;2.80;100.00
10658;BME280;5377;43.276;26.930;2023-02-15T01:30:58;100326.50;;;2.72;100.00
10658;BME280;5377;43.276;26.930;2023-02-15T01:33:25;100323.63;;;2.75;100.00
10658;BME280;5377;43.276;26.930;2023-02-15T01:35:56;100331.81;;;2.83;100.00
10658;BME280;5377;43.276;26.930;2023-02-15T01:38:23;100315.47;;;2.67;100.00
10658;BME280;5377;43.276;26.930;2023-02-15T01:40:51;100331.22;;;2.79;100.00
10658;BME280;5377;43.276;26.930;2023-02-15T01:43:19;100327.34;;;2.72;100.00
10658;BME280;5377;43.276;26.930;2023-02-15T01:45:47;100322.53;;;2.77;100.00
10658;BME280;5377;43.276;26.930;2023-02-15T01:48:19;100335.03;;;2.75;100.00
10658;BME280;5377;43.276;26.930;2023-02-15T01:50:50;100339.13;;;2.91;100.00
10658;BME280;5377;43.276;26.930;2023-02-15T01:53:21;100328.75;;;2.99;100.00
10658;BME280;5377;43.276;26.930;2023-02-15T01:55:53;100313.25;;;2.94;100.00
10658;BME280;5377;43.276;26.930;2023-02-15T01:58:22;100329.66;;;3.09;100.00
10658;BME280;5377;43.276;26.930;2023-02-15T02:00:50;100317.88;;;3.13;100.00
10658;BME280;5377;43.276;26.930;2023-02-15T02:03:17;100311.50;;;3.16;100.00
10658;BME280;5377;43.276;26.930;2023-02-15T02:05:50;100321.72;;;3.20;100.00
10658;BME280;5377;43.276;26.930;2023-02-15T02:08:17;100319.38;;;3.27;100.00
10658;BME280;5377;43.276;26.930;2023-02-15T02:10:44;100316.28;;;3.22;100.00
10658;BME280;5377;43.276;26.930;2023-02-15T02:13:11;100318.03;;;3.32;100.00
10658;BME280;5377;43.276;26.930;2023-02-15T02:15:46;100324.63;;;3.38;100.00
10658;BME280;5377;43.276;26.930;2023-02-15T02:18:24;100318.81;;;3.44;100.00
10658;BME280;5377;43.276;26.930;2023-02-15T02:21:17;100313.91;;;3.39;100.00
10658;BME280;5377;43.276;26.930;2023-02-15T02:24:06;100305.00;;;3.40;100.00
10658;BME280;5377;43.276;26.930;2023-02-15T02:27:01;100301.88;;;3.35;100.00
10658;BME280;5377;43.276;26.930;2023-02-15T02:33:08;100303.53;;;3.48;100.00
10658;BME280;5377;43.276;26.930;2023-02-15T02:35:44;100304.53;;;3.35;100.00
10658;BME280;5377;43.276;26.930;2023-02-15T02:38:23;100313.00;;;3.29;100.00
10658;BME280;5377;43.276;26.930;2023-02-15T02:41:00;100312.28;;;3.27;100.00
10658;BME280;5377;43.276;26.930;2023-02-15T02:43:37;100313.78;;;3.41;100.00
10658;BME280;5377;43.276;26.930;2023-02-15T02:46:10;100312.53;;;3.45;97.63
10658;BME280;5377;43.276;26.930;2023-02-15T02:48:41;100319.28;;;3.49;96.58
10658;BME280;5377;43.276;26.930;2023-02-15T02:51:08;100312.53;;;3.45;95.53
10658;BME280;5377;43.276;26.930;2023-02-15T02:53:34;100316.16;;;3.44;96.07
10658;BME280;5377;43.276;26.930;2023-02-15T02:56:06;100321.47;;;3.44;95.88
10658;BME280;5377;43.276;26.930;2023-02-15T02:58:39;100316.69;;;3.38;95.60
10658;BME280;5377;43.276;26.930;2023-02-15T03:01:13;100320.38;;;3.47;95.66
10658;BME280;5377;43.276;26.930;2023-02-15T03:03:46;100302.84;;;3.34;95.99
10658;BME280;5377;43.276;26.930;2023-02-15T03:06:17;100341.75;;;3.34;95.40
10658;BME280;5377;43.276;26.930;2023-02-15T03:08:48;100317.44;;;3.29;96.77
10658;BME280;5377;43.276;26.930;2023-02-15T03:11:17;100313.84;;;3.30;97.25
10658;BME280;5377;43.276;26.930;2023-02-15T03:13:45;100318.53;;;3.26;97.84
10658;BME280;5377;43.276;26.930;2023-02-15T03:16:16;100307.13;;;3.26;97.61
10658;BME280;5377;43.276;26.930;2023-02-15T03:18:58;100317.88;;;3.13;98.30
10658;BME280;5377;43.276;26.930;2023-02-15T03:21:32;100324.72;;;3.16;99.43
10658;BME280;5377;43.276;26.930;2023-02-15T03:24:04;100314.63;;;3.09;98.85
10658;BME280;5377;43.276;26.930;2023-02-15T03:26:34;100320.03;;;3.08;98.86
10658;BME280;5377;43.276;26.930;2023-02-15T03:29:04;100323.06;;;3.03;98.89
10658;BME280;5377;43.276;26.930;2023-02-15T03:31:34;100329.59;;;2.99;98.89
10658;BME280;5377;43.276;26.930;2023-02-15T03:34:07;100326.00;;;2.89;98.46
10658;BME280;5377;43.276;26.930;2023-02-15T03:36:42;100330.84;;;2.84;98.00
10658;BME280;5377;43.276;26.930;2023-02-15T03:39:15;100327.69;;;2.90;96.18
10658;BME280;5377;43.276;26.930;2023-02-15T03:41:48;100337.56;;;2.88;94.71
10658;BME280;5377;43.276;26.930;2023-02-15T03:44:20;100341.63;;;2.92;94.64
10658;BME280;5377;43.276;26.930;2023-02-15T03:46:53;100338.41;;;2.89;94.75
10658;BME280;5377;43.276;26.930;2023-02-15T03:49:24;100346.94;;;2.92;94.43
10658;BME280;5377;43.276;26.930;2023-02-15T03:51:56;100337.81;;;2.85;94.18
10658;BME280;5377;43.276;26.930;2023-02-15T03:54:25;100333.13;;;2.77;93.63
10658;BME280;5377;43.276;26.930;2023-02-15T03:57:18;100346.00;;;2.82;93.67
10658;BME280;5377;43.276;26.930;2023-02-15T04:00:06;100336.38;;;2.81;92.80
10658;BME280;5377;43.276;26.930;2023-02-15T04:03:05;100346.97;;;2.81;92.23
10658;BME280;5377;43.276;26.930;2023-02-15T04:05:35;100344.91;;;2.85;92.42
10658;BME280;5377;43.276;26.930;2023-02-15T04:08:02;100348.66;;;2.82;92.39
10658;BME280;5377;43.276;26.930;2023-02-15T04:10:29;100345.41;;;2.78;92.86
10658;BME280;5377;43.276;26.930;2023-02-15T04:13:13;100353.22;;;2.80;93.13
10658;BME280;5377;43.276;26.930;2023-02-15T04:15:40;100353.44;;;2.77;92.50
10658;BME280;5377;43.276;26.930;2023-02-15T04:18:24;100363.94;;;2.78;92.99
10658;BME280;5377;43.276;26.930;2023-02-15T04:21:10;100364.50;;;2.71;93.62
10658;BME280;5377;43.276;26.930;2023-02-15T04:23:54;100371.34;;;2.73;93.09
10658;BME280;5377;43.276;26.930;2023-02-15T04:26:37;100371.13;;;2.65;93.67
10658;BME280;5377;43.276;26.930;2023-02-15T04:29:04;100380.75;;;2.66;93.71
10658;BME280;5377;43.276;26.930;2023-02-15T04:31:31;100374.25;;;2.70;93.74
10658;BME280;5377;43.276;26.930;2023-02-15T04:33:58;100371.03;;;2.56;94.06
10658;BME280;5377;43.276;26.930;2023-02-15T04:36:26;100382.94;;;2.61;94.55
10658;BME280;5377;43.276;26.930;2023-02-15T04:38:53;100380.28;;;2.61;94.53
10658;BME280;5377;43.276;26.930;2023-02-15T04:41:19;100387.63;;;2.58;94.51
10658;BME280;5377;43.276;26.930;2023-02-15T04:43:46;100393.38;;;2.63;95.25
10658;BME280;5377;43.276;26.930;2023-02-15T04:46:13;100391.69;;;2.62;94.56
10658;BME280;5377;43.276;26.930;2023-02-15T04:48:40;100395.78;;;2.55;94.68
10658;BME280;5377;43.276;26.930;2023-02-15T04:51:07;100402.53;;;2.59;95.38
10658;BME280;5377;43.276;26.930;2023-02-15T04:53:36;100366.56;;;2.34;95.48
10658;BME280;5377;43.276;26.930;2023-02-15T04:56:03;100406.50;;;2.53;95.71
10658;BME280;5377;43.276;26.930;2023-02-15T04:58:30;100401.19;;;2.53;95.99
10658;BME280;5377;43.276;26.930;2023-02-15T05:00:57;100400.00;;;2.46;96.35
10658;BME280;5377;43.276;26.930;2023-02-15T05:03:24;100405.19;;;2.47;96.20
10658;BME280;5377;43.276;26.930;2023-02-15T05:05:51;100388.19;;;2.39;96.36
10658;BME280;5377;43.276;26.930;2023-02-15T05:08:18;100402.66;;;2.46;96.95
10658;BME280;5377;43.276;26.930;2023-02-15T05:10:47;100409.03;;;2.43;96.71
10658;BME280;5377;43.276;26.930;2023-02-15T05:13:14;100411.16;;;2.38;97.24
10658;BME280;5377;43.276;26.930;2023-02-15T05:15:41;100408.38;;;2.40;97.48
10658;BME280;5377;43.276;26.930;2023-02-15T05:18:08;100451.78;;;2.37;98.03
10658;BME280;5377;43.276;26.930;2023-02-15T05:20:34;100425.94;;;2.41;97.85
10658;BME280;5377;43.276;26.930;2023-02-15T05:23:01;100412.94;;;2.27;97.27
10658;BME280;5377;43.276;26.930;2023-02-15T05:25:28;100437.72;;;2.37;96.71
10658;BME280;5377;43.276;26.930;2023-02-15T05:28:13;100430.63;;;2.37;96.89
10658;BME280;5377;43.276;26.930;2023-02-15T05:30:46;100437.84;;;2.35;97.16
10658;BME280;5377;43.276;26.930;2023-02-15T05:33:13;100450.34;;;2.33;97.32
10658;BME280;5377;43.276;26.930;2023-02-15T05:35:40;100444.56;;;2.39;96.40
10658;BME280;5377;43.276;26.930;2023-02-15T05:38:07;100440.13;;;2.40;96.55
10658;BME280;5377;43.276;26.930;2023-02-15T05:40:34;100445.31;;;2.53;95.33
10658;BME280;5377;43.276;26.930;2023-02-15T05:43:00;100451.09;;;2.58;95.25
10658;BME280;5377;43.276;26.930;2023-02-15T05:45:29;100461.78;;;2.56;94.91
10658;BME280;5377;43.276;26.930;2023-02-15T05:47:55;100453.25;;;2.64;94.56
10658;BME280;5377;43.276;26.930;2023-02-15T05:50:23;100456.97;;;2.72;93.28
10658;BME280;5377;43.276;26.930;2023-02-15T05:52:50;100438.22;;;2.53;93.51
10658;BME280;5377;43.276;26.930;2023-02-15T05:55:17;100460.97;;;2.78;93.14
10658;BME280;5377;43.276;26.930;2023-02-15T05:57:44;100458.31;;;2.89;92.37
10658;BME280;5377;43.276;26.930;2023-02-15T06:00:12;100466.13;;;2.91;91.41
10658;BME280;5377;43.276;26.930;2023-02-15T06:02:40;100460.22;;;2.98;90.91
10658;BME280;5377;43.276;26.930;2023-02-15T06:05:07;100472.72;;;3.07;90.22
10658;BME280;5377;43.276;26.930;2023-02-15T06:07:34;100471.63;;;3.10;89.39
10658;BME280;5377;43.276;26.930;2023-02-15T06:10:01;100481.63;;;3.18;88.92
10658;BME280;5377;43.276;26.930;2023-02-15T06:12:28;100459.13;;;3.23;87.82
10658;BME280;5377;43.276;26.930;2023-02-15T06:14:55;100469.56;;;3.36;87.16
10658;BME280;5377;43.276;26.930;2023-02-15T06:17:22;100470.03;;;3.41;86.71
10658;BME280;5377;43.276;26.930;2023-02-15T06:19:50;100472.53;;;3.54;86.83
10658;BME280;5377;43.276;26.930;2023-02-15T06:22:17;100463.84;;;3.63;85.99
10658;BME280;5377;43.276;26.930;2023-02-15T06:24:43;100463.19;;;3.70;85.47
10658;BME280;5377;43.276;26.930;2023-02-15T06:27:10;100477.28;;;3.71;84.32
10658;BME280;5377;43.276;26.930;2023-02-15T06:29:37;100456.09;;;3.71;83.75
10658;BME280;5377;43.276;26.930;2023-02-15T06:32:04;100480.25;;;3.89;83.34
10658;BME280;5377;43.276;26.930;2023-02-15T06:34:31;100477.22;;;3.93;82.42
10658;BME280;5377;43.276;26.930;2023-02-15T06:37:00;100482.34;;;4.06;82.05
10658;BME280;5377;43.276;26.930;2023-02-15T06:39:27;100488.06;;;4.22;81.64
10658;BME280;5377;43.276;26.930;2023-02-15T06:41:53;100481.97;;;4.31;81.01
10658;BME280;5377;43.276;26.930;2023-02-15T06:44:20;100475.75;;;4.42;79.98
10658;BME280;5377;43.276;26.930;2023-02-15T06:46:47;100480.38;;;4.50;79.24
10658;BME280;5377;43.276;26.930;2023-02-15T06:49:14;100470.38;;;4.53;78.92
10658;BME280;5377;43.276;26.930;2023-02-15T06:51:43;100475.91;;;4.71;78.50
10658;BME280;5377;43.276;26.930;2023-02-15T06:54:11;100479.19;;;4.84;76.73
10658;BME280;5377;43.276;26.930;2023-02-15T06:56:38;100463.38;;;4.83;76.01
10658;BME280;5377;43.276;26.930;2023-02-15T06:59:05;100457.47;;;5.00;75.35
10658;BME280;5377;43.276;26.930;2023-02-15T07:01:31;100471.53;;;5.31;74.15
10658;BME280;5377;43.276;26.930;2023-02-15T07:03:58;100475.81;;;5.62;72.23
10658;BME280;5377;43.276;26.930;2023-02-15T07:06:25;100475.72;;;5.93;70.21
10658;BME280;5377;43.276;26.930;2023-02-15T07:08:52;100463.94;;;6.24;69.03
10658;BME280;5377;43.276;26.930;2023-02-15T07:11:20;100460.50;;;6.61;67.25
10658;BME280;5377;43.276;26.930;2023-02-15T07:14:04;100461.91;;;6.93;65.23
10658;BME280;5377;43.276;26.930;2023-02-15T07:16:31;100457.41;;;7.03;63.50
10658;BME280;5377;43.276;26.930;2023-02-15T07:18:58;100456.13;;;7.34;63.58
10658;BME280;5377;43.276;26.930;2023-02-15T07:21:25;100457.50;;;7.56;62.41
10658;BME280;5377;43.276;26.930;2023-02-15T07:23:52;100457.31;;;7.67;60.80
10658;BME280;5377;43.276;26.930;2023-02-15T07:26:20;100461.81;;;7.67;61.04
10658;BME280;5377;43.276;26.930;2023-02-15T07:28:47;100472.19;;;8.05;60.26
10658;BME280;5377;43.276;26.930;2023-02-15T07:31:14;100473.84;;;8.06;59.06
10658;BME280;5377;43.276;26.930;2023-02-15T07:33:41;100471.63;;;7.84;59.20
10658;BME280;5377;43.276;26.930;2023-02-15T07:36:08;100467.28;;;7.65;59.58
10658;BME280;5377;43.276;26.930;2023-02-15T07:38:38;100460.41;;;7.63;59.41
10658;BME280;5377;43.276;26.930;2023-02-15T07:41:07;100463.84;;;7.91;60.32
10658;BME280;5377;43.276;26.930;2023-02-15T07:43:38;100455.13;;;7.98;59.02
10658;BME280;5377;43.276;26.930;2023-02-15T07:46:07;100463.03;;;8.08;57.24
10658;BME280;5377;43.276;26.930;2023-02-15T07:48:35;100461.59;;;8.57;56.99
10658;BME280;5377;43.276;26.930;2023-02-15T07:51:03;100447.06;;;8.86;56.20
10658;BME280;5377;43.276;26.930;2023-02-15T07:53:31;100456.53;;;9.06;55.22
10658;BME280;5377;43.276;26.930;2023-02-15T07:55:58;100439.34;;;9.75;53.39
10658;BME280;5377;43.276;26.930;2023-02-15T07:58:25;100445.75;;;10.23;52.22
10658;BME280;5377;43.276;26.930;2023-02-15T08:01:14;100451.75;;;10.49;50.82
10658;BME280;5377;43.276;26.930;2023-02-15T08:03:41;100456.28;;;10.16;50.23
10658;BME280;5377;43.276;26.930;2023-02-15T08:06:08;100455.91;;;9.79;50.65
10658;BME280;5377;43.276;26.930;2023-02-15T08:08:35;100451.09;;;10.31;49.88
10658;BME280;5377;43.276;26.930;2023-02-15T08:11:06;100452.94;;;11.02;48.83
10658;BME280;5377;43.276;26.930;2023-02-15T08:13:55;100449.53;;;10.77;48.09
10658;BME280;5377;43.276;26.930;2023-02-15T08:16:27;100449.69;;;10.84;47.31
10658;BME280;5377;43.276;26.930;2023-02-15T08:18:55;100448.28;;;10.96;47.44
10658;BME280;5377;43.276;26.930;2023-02-15T08:21:25;100458.53;;;10.92;47.23
10658;BME280;5377;43.276;26.930;2023-02-15T08:23:52;100444.69;;;11.20;47.31
10658;BME280;5377;43.276;26.930;2023-02-15T08:26:19;100442.38;;;11.71;45.99
10658;BME280;5377;43.276;26.930;2023-02-15T08:28:46;100449.00;;;11.60;45.90
10658;BME280;5377;43.276;26.930;2023-02-15T08:31:14;100457.81;;;12.00;44.92
10658;BME280;5377;43.276;26.930;2023-02-15T08:33:43;100446.72;;;12.40;44.42
10658;BME280;5377;43.276;26.930;2023-02-15T08:36:13;100432.53;;;12.84;43.68
10658;BME280;5377;43.276;26.930;2023-02-15T08:38:40;100440.47;;;13.36;42.36
10658;BME280;5377;43.276;26.930;2023-02-15T08:41:13;100447.09;;;13.91;41.32
10658;BME280;5377;43.276;26.930;2023-02-15T08:43:40;100455.69;;;13.44;41.37
10658;BME280;5377;43.276;26.930;2023-02-15T08:46:08;100448.22;;;13.25;41.16
10658;BME280;5377;43.276;26.930;2023-02-15T08:48:35;100448.84;;;12.97;42.28
10658;BME280;5377;43.276;26.930;2023-02-15T08:51:08;100446.31;;;13.40;41.47
10658;BME280;5377;43.276;26.930;2023-02-15T08:53:37;100407.00;;;12.80;41.76
10658;BME280;5377;43.276;26.930;2023-02-15T08:56:05;100450.84;;;12.51;42.31
10658;BME280;5377;43.276;26.930;2023-02-15T08:58:32;100454.13;;;12.24;42.55
10658;BME280;5377;43.276;26.930;2023-02-15T09:00:59;100453.75;;;12.27;43.62
10658;BME280;5377;43.276;26.930;2023-02-15T09:03:27;100453.75;;;12.04;43.83
10658;BME280;5377;43.276;26.930;2023-02-15T09:05:57;100456.59;;;11.79;43.74
10658;BME280;5377;43.276;26.930;2023-02-15T09:08:26;100461.41;;;11.92;43.83
10658;BME280;5377;43.276;26.930;2023-02-15T09:10:53;100443.28;;;11.63;43.52
10658;BME280;5377;43.276;26.930;2023-02-15T09:13:20;100453.75;;;12.27;44.22
10658;BME280;5377;43.276;26.930;2023-02-15T09:15:47;100446.00;;;12.09;44.42
10658;BME280;5377;43.276;26.930;2023-02-15T09:18:14;100452.72;;;12.80;43.25
10658;BME280;5377;43.276;26.930;2023-02-15T09:20:43;100443.88;;;13.81;41.72
10658;BME280;5377;43.276;26.930;2023-02-15T09:23:10;100433.91;;;14.74;38.87
10658;BME280;5377;43.276;26.930;2023-02-15T09:25:39;100430.63;;;14.50;38.67
10658;BME280;5377;43.276;26.930;2023-02-15T09:28:05;100434.19;;;13.87;39.51
10658;BME280;5377;43.276;26.930;2023-02-15T09:30:33;100432.06;;;13.25;40.47
10658;BME280;5377;43.276;26.930;2023-02-15T09:33:00;100444.28;;;12.16;42.40
10658;BME280;5377;43.276;26.930;2023-02-15T09:35:27;100427.44;;;12.89;43.03
10658;BME280;5377;43.276;26.930;2023-02-15T09:37:53;100432.91;;;13.61;40.91
10658;BME280;5377;43.276;26.930;2023-02-15T09:40:20;100423.75;;;13.56;40.23
10658;BME280;5377;43.276;26.930;2023-02-15T09:43:15;100428.44;;;12.73;41.56
10658;BME280;5377;43.276;26.930;2023-02-15T09:46:10;100427.19;;;12.32;41.83
10658;BME280;5377;43.276;26.930;2023-02-15T09:48:42;100438.28;;;11.60;43.94
10658;BME280;5377;43.276;26.930;2023-02-15T09:51:42;100438.34;;;11.44;43.18
10658;BME280;5377;43.276;26.930;2023-02-15T09:54:29;100434.41;;;11.32;43.79
10658;BME280;5377;43.276;26.930;2023-02-15T09:57:08;100427.59;;;11.21;43.46
10658;BME280;5377;43.276;26.930;2023-02-15T09:59:44;100421.56;;;10.80;45.11
10658;BME280;5377;43.276;26.930;2023-02-15T10:02:27;100416.84;;;10.74;45.27
10658;BME280;5377;43.276;26.930;2023-02-15T10:05:11;100419.72;;;11.73;44.41
10658;BME280;5377;43.276;26.930;2023-02-15T10:10:48;100401.44;;;12.37;41.98
10658;BME280;5377;43.276;26.930;2023-02-15T10:13:28;100393.03;;;12.55;41.88
10658;BME280;5377;43.276;26.930;2023-02-15T10:16:10;100384.16;;;13.35;40.65
10658;BME280;5377;43.276;26.930;2023-02-15T10:18:55;100389.28;;;13.51;40.75
10658;BME280;5377;43.276;26.930;2023-02-15T10:21:36;100376.50;;;12.73;39.79
10658;BME280;5377;43.276;26.930;2023-02-15T10:24:27;100385.97;;;12.98;40.57
10658;BME280;5377;43.276;26.930;2023-02-15T10:27:04;100378.31;;;14.17;39.74
10658;BME280;5377;43.276;26.930;2023-02-15T10:29:36;100368.16;;;15.22;37.40
10658;BME280;5377;43.276;26.930;2023-02-15T10:32:15;100353.28;;;16.65;36.09
10658;BME280;5377;43.276;26.930;2023-02-15T10:34:49;100349.56;;;16.66;34.82
10658;BME280;5377;43.276;26.930;2023-02-15T10:37:36;100360.84;;;15.71;35.39
10658;BME280;5377;43.276;26.930;2023-02-15T10:40:11;100353.78;;;15.83;36.12
10658;BME280;5377;43.276;26.930;2023-02-15T10:42:53;100350.84;;;15.91;35.49
10658;BME280;5377;43.276;26.930;2023-02-15T10:45:30;100348.28;;;15.50;35.94
10658;BME280;5377;43.276;26.930;2023-02-15T10:48:25;100351.97;;;14.75;37.32
10658;BME280;5377;43.276;26.930;2023-02-15T10:50:55;100363.41;;;14.21;38.36
10658;BME280;5377;43.276;26.930;2023-02-15T10:56:20;100361.13;;;13.90;38.21
10658;BME280;5377;43.276;26.930;2023-02-15T10:59:10;100364.97;;;13.59;39.16
10658;BME280;5377;43.276;26.930;2023-02-15T11:01:45;100359.69;;;14.22;37.99
10658;BME280;5377;43.276;26.930;2023-02-15T11:04:48;100353.06;;;14.87;36.45
10658;BME280;5377;43.276;26.930;2023-02-15T11:07:20;100347.88;;;15.40;35.95
10658;BME280;5377;43.276;26.930;2023-02-15T11:09:51;100335.66;;;16.23;34.83
10658;BME280;5377;43.276;26.930;2023-02-15T11:12:23;100332.19;;;15.96;34.86
10658;BME280;5377;43.276;26.930;2023-02-15T11:14:55;100330.03;;;16.38;33.85
10658;BME280;5377;43.276;26.930;2023-02-15T11:17:26;100330.47;;;16.21;34.05
10658;BME280;5377;43.276;26.930;2023-02-15T11:20:02;100322.81;;;15.99;34.57
10658;BME280;5377;43.276;26.930;2023-02-15T11:22:33;100322.38;;;15.82;34.41
10658;BME280;5377;43.276;26.930;2023-02-15T11:25:02;100319.69;;;15.75;34.44
10658;BME280;5377;43.276;26.930;2023-02-15T11:27:31;100331.41;;;14.67;35.85
10658;BME280;5377;43.276;26.930;2023-02-15T11:30:01;100329.38;;;13.42;37.89
10658;BME280;5377;43.276;26.930;2023-02-15T11:32:31;100321.91;;;13.87;37.58
10658;BME280;5377;43.276;26.930;2023-02-15T11:35:03;100275.41;;;14.00;37.38
10658;BME280;5377;43.276;26.930;2023-02-15T11:37:37;100296.91;;;14.56;36.75
10658;BME280;5377;43.276;26.930;2023-02-15T11:40:24;100316.50;;;15.39;35.27
10658;BME280;5377;43.276;26.930;2023-02-15T11:42:55;100307.41;;;16.32;34.96
10658;BME280;5377;43.276;26.930;2023-02-15T11:45:26;100306.47;;;17.16;33.14
10658;BME280;5377;43.276;26.930;2023-02-15T11:47:54;100299.63;;;17.45;33.05
10658;BME280;5377;43.276;26.930;2023-02-15T11:50:25;100295.81;;;18.09;32.06
10658;BME280;5377;43.276;26.930;2023-02-15T11:52:54;100290.03;;;17.99;31.40
10658;BME280;5377;43.276;26.930;2023-02-15T11:55:22;100286.41;;;17.87;32.37
10658;BME280;5377;43.276;26.930;2023-02-15T11:57:53;100290.84;;;17.50;32.18
10658;BME280;5377;43.276;26.930;2023-02-15T12:00:31;100290.13;;;16.27;33.33
10658;BME280;5377;43.276;26.930;2023-02-15T12:03:04;100306.75;;;15.38;35.53
10658;BME280;5377;43.276;26.930;2023-02-15T12:05:37;100296.41;;;16.07;34.59
10658;BME280;5377;43.276;26.930;2023-02-15T12:08:13;100309.56;;;15.03;35.43
10658;BME280;5377;43.276;26.930;2023-02-15T12:10:46;100314.97;;;15.10;35.79
10658;BME280;5377;43.276;26.930;2023-02-15T12:13:19;100290.53;;;13.73;37.40
10658;BME280;5377;43.276;26.930;2023-02-15T12:15:48;100296.38;;;13.55;38.78
10658;BME280;5377;43.276;26.930;2023-02-15T12:18:25;100298.94;;;13.06;39.58
10658;BME280;5377;43.276;26.930;2023-02-15T12:21:02;100297.25;;;12.69;40.18
10658;BME280;5377;43.276;26.930;2023-02-15T12:23:30;100301.91;;;12.45;40.60
10658;BME280;5377;43.276;26.930;2023-02-15T12:25:58;100301.19;;;12.22;41.50
10658;BME280;5377;43.276;26.930;2023-02-15T12:28:31;100300.25;;;12.15;41.30
10658;BME280;5377;43.276;26.930;2023-02-15T12:30:59;100302.06;;;11.62;42.46
10658;BME280;5377;43.276;26.930;2023-02-15T12:33:30;100296.56;;;12.16;41.60
10658;BME280;5377;43.276;26.930;2023-02-15T12:36:01;100292.16;;;13.25;39.49
10658;BME280;5377;43.276;26.930;2023-02-15T12:38:29;100284.13;;;14.02;38.12
10658;BME280;5377;43.276;26.930;2023-02-15T12:40:59;100278.41;;;15.01;36.39
10658;BME280;5377;43.276;26.930;2023-02-15T12:43:27;100281.00;;;15.95;35.01
10658;BME280;5377;43.276;26.930;2023-02-15T12:46:13;100267.72;;;15.93;34.36
10658;BME280;5377;43.276;26.930;2023-02-15T12:48:41;100268.50;;;16.27;34.02
10658;BME280;5377;43.276;26.930;2023-02-15T12:51:14;100256.75;;;16.59;33.74
10658;BME280;5377;43.276;26.930;2023-02-15T12:53:41;100275.81;;;15.60;34.68
10658;BME280;5377;43.276;26.930;2023-02-15T12:56:09;100281.81;;;15.49;35.06
10658;BME280;5377;43.276;26.930;2023-02-15T12:58:37;100277.56;;;14.93;35.38
10658;BME280;5377;43.276;26.930;2023-02-15T13:01:11;100276.22;;;14.28;35.91
10658;BME280;5377;43.276;26.930;2023-02-15T13:03:56;100284.75;;;14.04;36.80
10658;BME280;5377;43.276;26.930;2023-02-15T13:06:26;100271.59;;;13.88;36.99
10658;BME280;5377;43.276;26.930;2023-02-15T13:08:55;100278.28;;;13.70;37.55
10658;BME280;5377;43.276;26.930;2023-02-15T13:11:26;100292.84;;;12.61;39.52
10658;BME280;5377;43.276;26.930;2023-02-15T13:13:56;100290.41;;;11.93;41.20
10658;BME280;5377;43.276;26.930;2023-02-15T13:16:29;100289.72;;;11.53;42.11
10658;BME280;5377;43.276;26.930;2023-02-15T13:18:58;100291.34;;;11.16;42.93
10658;BME280;5377;43.276;26.930;2023-02-15T13:21:34;100291.81;;;11.43;42.91
10658;BME280;5377;43.276;26.930;2023-02-15T13:24:06;100296.41;;;11.34;42.04
10658;BME280;5377;43.276;26.930;2023-02-15T13:26:35;100298.25;;;11.11;42.75